Terminal Aerodrome Forecast
Issued by NWS Shreveport, LA

Home | Current Version | Previous Version | Text Only | Print | Product List | Glossary On
Versions: 1 2 3 4 5 6 7 8 9 10 11 12 13 14 15 16 17
000
FTUS44 KSHV 100600 CCA
TAFELD
TAF COR
KELD 100644Z 1007/1106 09003KT P6SM VCTS SCT050CB BKN090
      TEMPO 1007/1010 VRB10G20KT 3SM -TSRA BR BKN050CB
     FM101000 VRB03KT 5SM BR BKN015
     FM101300 VRB04KT P6SM FEW020 SCT250
     FM101600 VRB04KT P6SM SCT030 SCT250
     FM102000 VRB05KT P6SM SCT040 SCT250
     FM110000 VRB03KT P6SM SCT050 SCT250=

USA.gov is the U.S. government's official web portal to all federal, state and local government web resources and services.